sensor_id;sensor_type;location;lat;lon;timestamp;temperature;humidity
13123;DHT22;6627;50.920;12.050;2023-05-14T00:00:51;13.60;2.50
13123;DHT22;6627;50.920;12.050;2023-05-14T00:03:18;13.50;50.40
13123;DHT22;6627;50.920;12.050;2023-05-14T00:05:46;13.50;65.20
13123;DHT22;6627;50.920;12.050;2023-05-14T00:08:13;13.50;96.60
13123;DHT22;6627;50.920;12.050;2023-05-14T00:10:41;13.40;99.90
13123;DHT22;6627;50.920;12.050;2023-05-14T00:13:09;13.30;99.90
13123;DHT22;6627;50.920;12.050;2023-05-14T00:15:36;13.40;99.90
13123;DHT22;6627;50.920;12.050;2023-05-14T00:18:04;13.40;99.90
13123;DHT22;6627;50.920;12.050;2023-05-14T00:20:31;13.30;99.90
13123;DHT22;6627;50.920;12.050;2023-05-14T00:22:58;13.30;99.90
13123;DHT22;6627;50.920;12.050;2023-05-14T00:25:26;13.20;99.90
13123;DHT22;6627;50.920;12.050;2023-05-14T00:27:54;13.10;99.90
13123;DHT22;6627;50.920;12.050;2023-05-14T00:30:22;12.90;1.00
13123;DHT22;6627;50.920;12.050;2023-05-14T00:32:49;12.80;1.00
13123;DHT22;6627;50.920;12.050;2023-05-14T00:35:17;12.20;1.00
13123;DHT22;6627;50.920;12.050;2023-05-14T00:37:46;11.80;99.90
13123;DHT22;6627;50.920;12.050;2023-05-14T00:40:13;11.60;99.90
13123;DHT22;6627;50.920;12.050;2023-05-14T00:42:40;11.60;99.90
13123;DHT22;6627;50.920;12.050;2023-05-14T00:45:08;11.40;1.00
13123;DHT22;6627;50.920;12.050;2023-05-14T00:47:37;11.30;99.90
13123;DHT22;6627;50.920;12.050;2023-05-14T00:50:06;11.10;1.00
13123;DHT22;6627;50.920;12.050;2023-05-14T00:52:34;11.20;12.10
13123;DHT22;6627;50.920;12.050;2023-05-14T00:55:03;11.00;86.80
13123;DHT22;6627;50.920;12.050;2023-05-14T00:57:32;11.10;99.90
13123;DHT22;6627;50.920;12.050;2023-05-14T01:00:00;11.20;1.00
13123;DHT22;6627;50.920;12.050;2023-05-14T01:02:28;11.20;1.00
13123;DHT22;6627;50.920;12.050;2023-05-14T01:04:56;11.20;99.90
13123;DHT22;6627;50.920;12.050;2023-05-14T01:07:29;11.00;1.00
13123;DHT22;6627;50.920;12.050;2023-05-14T01:10:07;10.90;1.00
13123;DHT22;6627;50.920;12.050;2023-05-14T01:12:41;10.80;99.90
13123;DHT22;6627;50.920;12.050;2023-05-14T01:15:17;10.90;1.00
13123;DHT22;6627;50.920;12.050;2023-05-14T01:17:51;10.90;1.00
13123;DHT22;6627;50.920;12.050;2023-05-14T01:20:25;11.00;99.90
13123;DHT22;6627;50.920;12.050;2023-05-14T01:22:54;10.90;1.00
13123;DHT22;6627;50.920;12.050;2023-05-14T01:25:21;11.10;1.00
13123;DHT22;6627;50.920;12.050;2023-05-14T01:27:53;11.10;99.90
13123;DHT22;6627;50.920;12.050;2023-05-14T01:30:31;10.80;1.00
13123;DHT22;6627;50.920;12.050;2023-05-14T01:33:04;10.60;99.90
13123;DHT22;6627;50.920;12.050;2023-05-14T01:35:36;10.40;1.00
13123;DHT22;6627;50.920;12.050;2023-05-14T01:38:07;10.30;95.50
13123;DHT22;6627;50.920;12.050;2023-05-14T01:40:36;10.20;99.90
13123;DHT22;6627;50.920;12.050;2023-05-14T01:43:04;10.20;99.90
13123;DHT22;6627;50.920;12.050;2023-05-14T01:45:34;10.30;99.90
13123;DHT22;6627;50.920;12.050;2023-05-14T01:48:03;10.40;99.90
13123;DHT22;6627;50.920;12.050;2023-05-14T01:50:31;10.20;99.90
13123;DHT22;6627;50.920;12.050;2023-05-14T01:52:58;10.10;99.90
13123;DHT22;6627;50.920;12.050;2023-05-14T01:55:26;10.00;99.90
13123;DHT22;6627;50.920;12.050;2023-05-14T01:57:54;9.90;99.90
13123;DHT22;6627;50.920;12.050;2023-05-14T02:00:22;9.90;99.90
13123;DHT22;6627;50.920;12.050;2023-05-14T02:02:50;9.90;99.90
13123;DHT22;6627;50.920;12.050;2023-05-14T02:05:18;9.80;99.90
13123;DHT22;6627;50.920;12.050;2023-05-14T02:07:45;9.90;99.90
13123;DHT22;6627;50.920;12.050;2023-05-14T02:10:13;9.80;99.90
13123;DHT22;6627;50.920;12.050;2023-05-14T02:12:41;9.70;99.90
13123;DHT22;6627;50.920;12.050;2023-05-14T02:15:09;9.70;99.90
13123;DHT22;6627;50.920;12.050;2023-05-14T02:17:37;9.60;99.90
13123;DHT22;6627;50.920;12.050;2023-05-14T02:20:05;9.50;99.90
13123;DHT22;6627;50.920;12.050;2023-05-14T02:22:35;9.60;99.90
13123;DHT22;6627;50.920;12.050;2023-05-14T02:25:03;9.60;99.90
13123;DHT22;6627;50.920;12.050;2023-05-14T02:27:30;9.60;99.90
13123;DHT22;6627;50.920;12.050;2023-05-14T02:29:59;9.90;99.90
13123;DHT22;6627;50.920;12.050;2023-05-14T02:32:27;9.80;99.90
13123;DHT22;6627;50.920;12.050;2023-05-14T02:34:54;9.70;99.90
13123;DHT22;6627;50.920;12.050;2023-05-14T02:37:21;9.70;99.90
13123;DHT22;6627;50.920;12.050;2023-05-14T02:39:48;9.60;99.90
13123;DHT22;6627;50.920;12.050;2023-05-14T02:42:16;9.70;99.90
13123;DHT22;6627;50.920;12.050;2023-05-14T02:44:43;9.80;99.90
13123;DHT22;6627;50.920;12.050;2023-05-14T02:47:11;9.50;99.90
13123;DHT22;6627;50.920;12.050;2023-05-14T02:49:39;9.60;99.90
13123;DHT22;6627;50.920;12.050;2023-05-14T02:52:07;9.70;99.90
13123;DHT22;6627;50.920;12.050;2023-05-14T02:54:34;9.50;99.90
13123;DHT22;6627;50.920;12.050;2023-05-14T02:59:29;9.60;99.90
13123;DHT22;6627;50.920;12.050;2023-05-14T03:01:56;9.50;99.90
13123;DHT22;6627;50.920;12.050;2023-05-14T03:04:25;9.30;99.90
13123;DHT22;6627;50.920;12.050;2023-05-14T03:06:52;9.30;99.90
13123;DHT22;6627;50.920;12.050;2023-05-14T03:09:19;9.00;99.90
13123;DHT22;6627;50.920;12.050;2023-05-14T03:11:46;9.10;99.90
13123;DHT22;6627;50.920;12.050;2023-05-14T03:14:13;8.80;99.90
13123;DHT22;6627;50.920;12.050;2023-05-14T03:16:41;9.00;99.90
13123;DHT22;6627;50.920;12.050;2023-05-14T03:19:08;9.00;99.90
13123;DHT22;6627;50.920;12.050;2023-05-14T03:21:37;9.00;99.90
13123;DHT22;6627;50.920;12.050;2023-05-14T03:24:05;8.90;99.90
13123;DHT22;6627;50.920;12.050;2023-05-14T03:26:32;8.70;99.90
13123;DHT22;6627;50.920;12.050;2023-05-14T03:28:59;8.40;99.90
13123;DHT22;6627;50.920;12.050;2023-05-14T03:31:28;8.40;99.90
13123;DHT22;6627;50.920;12.050;2023-05-14T03:33:56;8.50;99.90
13123;DHT22;6627;50.920;12.050;2023-05-14T03:36:24;8.40;99.90
13123;DHT22;6627;50.920;12.050;2023-05-14T03:38:53;8.20;99.90
13123;DHT22;6627;50.920;12.050;2023-05-14T03:41:21;8.40;99.90
13123;DHT22;6627;50.920;12.050;2023-05-14T03:43:48;8.60;99.90
13123;DHT22;6627;50.920;12.050;2023-05-14T03:46:15;8.50;99.90
13123;DHT22;6627;50.920;12.050;2023-05-14T03:48:43;8.40;99.90
13123;DHT22;6627;50.920;12.050;2023-05-14T03:51:10;8.50;99.90
13123;DHT22;6627;50.920;12.050;2023-05-14T03:53:37;8.40;99.90
13123;DHT22;6627;50.920;12.050;2023-05-14T03:56:05;8.80;99.90
13123;DHT22;6627;50.920;12.050;2023-05-14T03:58:33;8.70;99.90
13123;DHT22;6627;50.920;12.050;2023-05-14T04:01:00;8.80;99.90
13123;DHT22;6627;50.920;12.050;2023-05-14T04:03:28;8.40;99.90
13123;DHT22;6627;50.920;12.050;2023-05-14T04:05:56;8.20;99.90
13123;DHT22;6627;50.920;12.050;2023-05-14T04:08:23;8.30;99.90
13123;DHT22;6627;50.920;12.050;2023-05-14T04:10:50;8.50;99.90
13123;DHT22;6627;50.920;12.050;2023-05-14T04:13:19;8.50;99.90
13123;DHT22;6627;50.920;12.050;2023-05-14T04:15:46;8.20;99.90
13123;DHT22;6627;50.920;12.050;2023-05-14T04:18:13;8.10;99.90
13123;DHT22;6627;50.920;12.050;2023-05-14T04:20:40;8.10;99.90
13123;DHT22;6627;50.920;12.050;2023-05-14T04:23:07;8.10;99.90
13123;DHT22;6627;50.920;12.050;2023-05-14T04:25:34;8.40;99.90
13123;DHT22;6627;50.920;12.050;2023-05-14T04:30:30;8.70;99.90
13123;DHT22;6627;50.920;12.050;2023-05-14T04:32:58;8.40;99.90
13123;DHT22;6627;50.920;12.050;2023-05-14T04:35:25;8.60;99.90
13123;DHT22;6627;50.920;12.050;2023-05-14T04:37:52;8.60;99.90
13123;DHT22;6627;50.920;12.050;2023-05-14T04:40:19;8.70;99.90
13123;DHT22;6627;50.920;12.050;2023-05-14T04:45:15;8.60;99.90
13123;DHT22;6627;50.920;12.050;2023-05-14T04:47:45;8.30;99.90
13123;DHT22;6627;50.920;12.050;2023-05-14T04:50:12;8.30;99.90
13123;DHT22;6627;50.920;12.050;2023-05-14T04:52:39;8.50;99.90
13123;DHT22;6627;50.920;12.050;2023-05-14T04:55:08;8.30;99.90
13123;DHT22;6627;50.920;12.050;2023-05-14T04:57:36;8.40;99.90
13123;DHT22;6627;50.920;12.050;2023-05-14T05:00:03;8.50;99.90
13123;DHT22;6627;50.920;12.050;2023-05-14T05:02:34;8.70;99.90
13123;DHT22;6627;50.920;12.050;2023-05-14T05:05:04;8.80;99.90
13123;DHT22;6627;50.920;12.050;2023-05-14T05:07:31;8.90;99.90
13123;DHT22;6627;50.920;12.050;2023-05-14T05:09:58;9.10;99.90
13123;DHT22;6627;50.920;12.050;2023-05-14T05:12:26;9.20;99.90
13123;DHT22;6627;50.920;12.050;2023-05-14T05:14:55;9.20;99.90
13123;DHT22;6627;50.920;12.050;2023-05-14T05:17:22;9.50;99.90
13123;DHT22;6627;50.920;12.050;2023-05-14T05:19:50;9.40;99.90
13123;DHT22;6627;50.920;12.050;2023-05-14T05:22:18;9.40;99.90
13123;DHT22;6627;50.920;12.050;2023-05-14T05:24:45;9.60;99.90
13123;DHT22;6627;50.920;12.050;2023-05-14T05:27:13;9.60;99.90
13123;DHT22;6627;50.920;12.050;2023-05-14T05:29:40;9.70;99.90
13123;DHT22;6627;50.920;12.050;2023-05-14T05:32:07;9.80;99.90
13123;DHT22;6627;50.920;12.050;2023-05-14T05:34:34;9.80;99.90
13123;DHT22;6627;50.920;12.050;2023-05-14T05:37:02;9.90;99.90
13123;DHT22;6627;50.920;12.050;2023-05-14T05:39:32;10.00;99.90
13123;DHT22;6627;50.920;12.050;2023-05-14T05:41:59;10.00;99.90
13123;DHT22;6627;50.920;12.050;2023-05-14T05:44:27;10.00;99.90
13123;DHT22;6627;50.920;12.050;2023-05-14T05:46:54;9.90;99.90
13123;DHT22;6627;50.920;12.050;2023-05-14T05:49:22;10.00;99.90
13123;DHT22;6627;50.920;12.050;2023-05-14T05:51:49;10.20;99.90
13123;DHT22;6627;50.920;12.050;2023-05-14T05:54:16;10.30;99.90
13123;DHT22;6627;50.920;12.050;2023-05-14T05:56:45;10.40;99.90
13123;DHT22;6627;50.920;12.050;2023-05-14T05:59:12;10.50;99.90
13123;DHT22;6627;50.920;12.050;2023-05-14T06:01:39;10.60;99.90
13123;DHT22;6627;50.920;12.050;2023-05-14T06:04:08;10.90;99.90
13123;DHT22;6627;50.920;12.050;2023-05-14T06:06:35;11.00;99.90
13123;DHT22;6627;50.920;12.050;2023-05-14T06:09:02;11.10;99.90
13123;DHT22;6627;50.920;12.050;2023-05-14T06:11:32;11.20;99.90
13123;DHT22;6627;50.920;12.050;2023-05-14T06:14:00;11.30;99.90
13123;DHT22;6627;50.920;12.050;2023-05-14T06:16:27;11.40;99.90
13123;DHT22;6627;50.920;12.050;2023-05-14T06:18:54;11.60;99.90
13123;DHT22;6627;50.920;12.050;2023-05-14T06:21:22;11.50;99.90
13123;DHT22;6627;50.920;12.050;2023-05-14T06:23:49;11.70;99.90
13123;DHT22;6627;50.920;12.050;2023-05-14T06:26:16;11.90;99.90
13123;DHT22;6627;50.920;12.050;2023-05-14T06:28:43;12.10;99.90
13123;DHT22;6627;50.920;12.050;2023-05-14T06:31:12;12.40;99.90
13123;DHT22;6627;50.920;12.050;2023-05-14T06:33:39;12.60;99.90
13123;DHT22;6627;50.920;12.050;2023-05-14T06:36:07;12.80;99.90
13123;DHT22;6627;50.920;12.050;2023-05-14T06:38:35;12.90;99.90
13123;DHT22;6627;50.920;12.050;2023-05-14T06:41:02;13.20;99.90
13123;DHT22;6627;50.920;12.050;2023-05-14T06:43:29;13.40;99.90
13123;DHT22;6627;50.920;12.050;2023-05-14T06:45:56;13.60;99.90
13123;DHT22;6627;50.920;12.050;2023-05-14T06:48:25;14.10;99.90
13123;DHT22;6627;50.920;12.050;2023-05-14T06:50:54;14.40;99.90
13123;DHT22;6627;50.920;12.050;2023-05-14T06:53:21;15.00;99.90
13123;DHT22;6627;50.920;12.050;2023-05-14T06:55:48;15.00;99.90
13123;DHT22;6627;50.920;12.050;2023-05-14T06:58:16;15.20;99.90
13123;DHT22;6627;50.920;12.050;2023-05-14T07:00:43;15.00;99.90
13123;DHT22;6627;50.920;12.050;2023-05-14T07:03:10;15.00;99.90
13123;DHT22;6627;50.920;12.050;2023-05-14T07:05:38;15.60;99.90
13123;DHT22;6627;50.920;12.050;2023-05-14T07:08:06;15.70;99.90
13123;DHT22;6627;50.920;12.050;2023-05-14T07:10:34;15.80;99.90
13123;DHT22;6627;50.920;12.050;2023-05-14T07:13:01;16.00;99.90
13123;DHT22;6627;50.920;12.050;2023-05-14T07:15:29;16.20;99.90
13123;DHT22;6627;50.920;12.050;2023-05-14T07:20:25;16.30;99.90
13123;DHT22;6627;50.920;12.050;2023-05-14T07:22:53;16.70;99.90
13123;DHT22;6627;50.920;12.050;2023-05-14T07:25:21;16.40;99.90
13123;DHT22;6627;50.920;12.050;2023-05-14T07:27:48;16.50;99.90
13123;DHT22;6627;50.920;12.050;2023-05-14T07:30:15;17.10;91.40
13123;DHT22;6627;50.920;12.050;2023-05-14T07:32:42;17.30;1.00
13123;DHT22;6627;50.920;12.050;2023-05-14T07:35:10;17.50;1.00
13123;DHT22;6627;50.920;12.050;2023-05-14T07:37:37;17.50;1.00
13123;DHT22;6627;50.920;12.050;2023-05-14T07:40:07;17.50;1.00
13123;DHT22;6627;50.920;12.050;2023-05-14T07:42:35;17.20;99.90
13123;DHT22;6627;50.920;12.050;2023-05-14T07:45:03;17.50;1.00
13123;DHT22;6627;50.920;12.050;2023-05-14T07:47:30;17.70;99.90
13123;DHT22;6627;50.920;12.050;2023-05-14T07:49:58;17.90;1.00
13123;DHT22;6627;50.920;12.050;2023-05-14T07:52:25;18.30;1.00
13123;DHT22;6627;50.920;12.050;2023-05-14T07:54:52;18.10;1.00
13123;DHT22;6627;50.920;12.050;2023-05-14T07:57:21;18.30;99.90
13123;DHT22;6627;50.920;12.050;2023-05-14T07:59:48;18.30;22.70
13123;DHT22;6627;50.920;12.050;2023-05-14T08:02:16;18.60;1.00
13123;DHT22;6627;50.920;12.050;2023-05-14T08:04:43;18.40;99.90
13123;DHT22;6627;50.920;12.050;2023-05-14T08:07:10;18.60;1.00
13123;DHT22;6627;50.920;12.050;2023-05-14T08:12:06;18.40;99.90
13123;DHT22;6627;50.920;12.050;2023-05-14T08:14:34;18.50;78.90
13123;DHT22;6627;50.920;12.050;2023-05-14T08:17:02;18.60;1.00
13123;DHT22;6627;50.920;12.050;2023-05-14T08:19:29;18.90;1.00
13123;DHT22;6627;50.920;12.050;2023-05-14T08:21:56;18.90;99.90
13123;DHT22;6627;50.920;12.050;2023-05-14T08:24:24;18.90;99.90
13123;DHT22;6627;50.920;12.050;2023-05-14T08:26:51;18.60;1.00
13123;DHT22;6627;50.920;12.050;2023-05-14T08:29:18;18.70;1.00
13123;DHT22;6627;50.920;12.050;2023-05-14T08:31:48;18.60;1.00
13123;DHT22;6627;50.920;12.050;2023-05-14T08:34:15;18.40;1.00
13123;DHT22;6627;50.920;12.050;2023-05-14T08:36:43;18.60;99.90
13123;DHT22;6627;50.920;12.050;2023-05-14T08:39:10;19.00;99.90
13123;DHT22;6627;50.920;12.050;2023-05-14T08:41:38;19.10;99.90
13123;DHT22;6627;50.920;12.050;2023-05-14T08:44:07;19.10;99.90
13123;DHT22;6627;50.920;12.050;2023-05-14T08:46:39;19.10;2.60
13123;DHT22;6627;50.920;12.050;2023-05-14T08:51:46;18.80;1.00
13123;DHT22;6627;50.920;12.050;2023-05-14T08:54:15;18.40;1.00
13123;DHT22;6627;50.920;12.050;2023-05-14T08:56:43;18.30;1.00
13123;DHT22;6627;50.920;12.050;2023-05-14T08:59:11;18.20;99.90
13123;DHT22;6627;50.920;12.050;2023-05-14T09:01:43;18.40;99.90
13123;DHT22;6627;50.920;12.050;2023-05-14T09:04:19;18.40;99.90
13123;DHT22;6627;50.920;12.050;2023-05-14T09:06:48;18.40;99.90
13123;DHT22;6627;50.920;12.050;2023-05-14T09:09:17;18.20;99.90
13123;DHT22;6627;50.920;12.050;2023-05-14T09:11:47;17.80;99.90
13123;DHT22;6627;50.920;12.050;2023-05-14T09:16:46;18.40;99.90
13123;DHT22;6627;50.920;12.050;2023-05-14T09:19:16;18.90;99.90
13123;DHT22;6627;50.920;12.050;2023-05-14T09:21:45;19.10;99.90
13123;DHT22;6627;50.920;12.050;2023-05-14T09:24:18;19.20;86.00
13123;DHT22;6627;50.920;12.050;2023-05-14T09:26:49;19.00;1.00
13123;DHT22;6627;50.920;12.050;2023-05-14T09:29:18;19.20;1.00
13123;DHT22;6627;50.920;12.050;2023-05-14T09:31:49;19.20;1.00
13123;DHT22;6627;50.920;12.050;2023-05-14T09:34:24;19.20;1.00
13123;DHT22;6627;50.920;12.050;2023-05-14T09:36:55;18.80;1.00
13123;DHT22;6627;50.920;12.050;2023-05-14T09:39:23;18.50;1.00
13123;DHT22;6627;50.920;12.050;2023-05-14T09:41:52;18.50;1.00
13123;DHT22;6627;50.920;12.050;2023-05-14T09:44:19;18.30;1.00
13123;DHT22;6627;50.920;12.050;2023-05-14T09:46:49;18.20;1.00
13123;DHT22;6627;50.920;12.050;2023-05-14T09:49:16;18.00;1.00
13123;DHT22;6627;50.920;12.050;2023-05-14T09:51:46;18.20;1.00
13123;DHT22;6627;50.920;12.050;2023-05-14T09:54:14;18.20;1.00
13123;DHT22;6627;50.920;12.050;2023-05-14T09:56:43;18.00;1.00
13123;DHT22;6627;50.920;12.050;2023-05-14T09:59:10;18.10;1.00
13123;DHT22;6627;50.920;12.050;2023-05-14T10:01:37;18.10;1.00
13123;DHT22;6627;50.920;12.050;2023-05-14T10:04:08;18.00;1.00
13123;DHT22;6627;50.920;12.050;2023-05-14T10:06:37;18.10;1.00
13123;DHT22;6627;50.920;12.050;2023-05-14T10:09:11;18.10;1.00
13123;DHT22;6627;50.920;12.050;2023-05-14T10:11:42;18.30;1.00
13123;DHT22;6627;50.920;12.050;2023-05-14T10:14:14;18.80;1.00
13123;DHT22;6627;50.920;12.050;2023-05-14T10:16:47;19.00;1.00
13123;DHT22;6627;50.920;12.050;2023-05-14T10:19:17;19.40;1.00
13123;DHT22;6627;50.920;12.050;2023-05-14T10:21:48;19.70;99.90
13123;DHT22;6627;50.920;12.050;2023-05-14T10:24:21;19.50;99.90
13123;DHT22;6627;50.920;12.050;2023-05-14T10:26:50;19.10;99.90
13123;DHT22;6627;50.920;12.050;2023-05-14T10:29:18;19.00;99.90
13123;DHT22;6627;50.920;12.050;2023-05-14T10:31:47;18.90;99.90
13123;DHT22;6627;50.920;12.050;2023-05-14T10:34:33;18.90;99.90
13123;DHT22;6627;50.920;12.050;2023-05-14T10:37:03;18.80;99.90
13123;DHT22;6627;50.920;12.050;2023-05-14T10:39:44;18.80;99.90
13123;DHT22;6627;50.920;12.050;2023-05-14T10:42:16;18.90;99.90
13123;DHT22;6627;50.920;12.050;2023-05-14T10:44:48;18.80;99.90
13123;DHT22;6627;50.920;12.050;2023-05-14T10:47:18;18.90;99.90
13123;DHT22;6627;50.920;12.050;2023-05-14T10:49:46;18.70;99.90
13123;DHT22;6627;50.920;12.050;2023-05-14T10:52:18;18.80;99.90
13123;DHT22;6627;50.920;12.050;2023-05-14T10:54:49;18.90;99.90
13123;DHT22;6627;50.920;12.050;2023-05-14T10:57:19;18.80;99.90
13123;DHT22;6627;50.920;12.050;2023-05-14T10:59:48;18.80;99.90
13123;DHT22;6627;50.920;12.050;2023-05-14T11:02:20;18.70;72.90
13123;DHT22;6627;50.920;12.050;2023-05-14T11:04:57;18.80;69.70
13123;DHT22;6627;50.920;12.050;2023-05-14T11:07:30;19.00;92.20
13123;DHT22;6627;50.920;12.050;2023-05-14T11:10:02;19.00;99.90
13123;DHT22;6627;50.920;12.050;2023-05-14T11:12:32;19.10;99.90
13123;DHT22;6627;50.920;12.050;2023-05-14T11:15:01;19.00;71.70
13123;DHT22;6627;50.920;12.050;2023-05-14T11:17:30;19.20;40.00
13123;DHT22;6627;50.920;12.050;2023-05-14T11:19:59;19.10;41.40
13123;DHT22;6627;50.920;12.050;2023-05-14T11:22:27;19.20;34.60
13123;DHT22;6627;50.920;12.050;2023-05-14T11:24:54;19.40;1.00
13123;DHT22;6627;50.920;12.050;2023-05-14T11:27:23;19.50;1.00
13123;DHT22;6627;50.920;12.050;2023-05-14T11:29:51;19.30;1.00
13123;DHT22;6627;50.920;12.050;2023-05-14T11:32:20;19.50;1.00
13123;DHT22;6627;50.920;12.050;2023-05-14T11:34:48;19.80;1.00
13123;DHT22;6627;50.920;12.050;2023-05-14T11:37:16;19.90;1.00
13123;DHT22;6627;50.920;12.050;2023-05-14T11:39:47;19.90;1.00
13123;DHT22;6627;50.920;12.050;2023-05-14T11:42:15;20.00;1.00
13123;DHT22;6627;50.920;12.050;2023-05-14T11:44:47;19.80;1.00
13123;DHT22;6627;50.920;12.050;2023-05-14T11:47:16;20.20;1.00
13123;DHT22;6627;50.920;12.050;2023-05-14T11:49:45;20.10;1.00
13123;DHT22;6627;50.920;12.050;2023-05-14T11:52:14;20.10;1.00
13123;DHT22;6627;50.920;12.050;2023-05-14T11:54:44;20.20;1.00
13123;DHT22;6627;50.920;12.050;2023-05-14T11:57:14;20.50;1.00
13123;DHT22;6627;50.920;12.050;2023-05-14T11:59:43;20.00;1.00
13123;DHT22;6627;50.920;12.050;2023-05-14T12:02:13;19.80;1.00
13123;DHT22;6627;50.920;12.050;2023-05-14T12:04:43;19.70;1.00
13123;DHT22;6627;50.920;12.050;2023-05-14T12:07:15;20.10;1.00
13123;DHT22;6627;50.920;12.050;2023-05-14T12:09:44;20.30;1.00
13123;DHT22;6627;50.920;12.050;2023-05-14T12:12:16;20.10;1.00
13123;DHT22;6627;50.920;12.050;2023-05-14T12:14:45;19.90;1.00
13123;DHT22;6627;50.920;12.050;2023-05-14T12:17:15;19.90;1.00
13123;DHT22;6627;50.920;12.050;2023-05-14T12:19:46;19.50;1.00
13123;DHT22;6627;50.920;12.050;2023-05-14T12:22:16;19.50;1.00
13123;DHT22;6627;50.920;12.050;2023-05-14T12:24:52;19.50;1.00
13123;DHT22;6627;50.920;12.050;2023-05-14T12:27:21;19.60;1.00
13123;DHT22;6627;50.920;12.050;2023-05-14T12:29:50;19.70;1.00
13123;DHT22;6627;50.920;12.050;2023-05-14T12:32:26;19.70;1.00
13123;DHT22;6627;50.920;12.050;2023-05-14T12:34:53;19.80;1.00
13123;DHT22;6627;50.920;12.050;2023-05-14T12:37:20;19.60;1.00
13123;DHT22;6627;50.920;12.050;2023-05-14T12:39:47;19.60;1.00
13123;DHT22;6627;50.920;12.050;2023-05-14T12:42:15;20.10;1.00
13123;DHT22;6627;50.920;12.050;2023-05-14T12:44:42;20.30;1.00
13123;DHT22;6627;50.920;12.050;2023-05-14T12:47:09;20.40;1.00
13123;DHT22;6627;50.920;12.050;2023-05-14T12:49:38;20.10;1.00
13123;DHT22;6627;50.920;12.050;2023-05-14T12:52:05;20.10;1.00
13123;DHT22;6627;50.920;12.050;2023-05-14T12:54:33;20.20;1.00
13123;DHT22;6627;50.920;12.050;2023-05-14T12:57:00;20.10;1.00
13123;DHT22;6627;50.920;12.050;2023-05-14T12:59:27;20.10;1.00
13123;DHT22;6627;50.920;12.050;2023-05-14T13:01:54;20.00;1.00
13123;DHT22;6627;50.920;12.050;2023-05-14T13:04:21;20.10;1.00
13123;DHT22;6627;50.920;12.050;2023-05-14T13:06:50;20.10;1.00
13123;DHT22;6627;50.920;12.050;2023-05-14T13:09:17;20.10;1.00
13123;DHT22;6627;50.920;12.050;2023-05-14T13:11:44;20.10;1.00
13123;DHT22;6627;50.920;12.050;2023-05-14T13:16:39;20.10;1.00
13123;DHT22;6627;50.920;12.050;2023-05-14T13:19:06;19.80;1.00
13123;DHT22;6627;50.920;12.050;2023-05-14T13:21:34;19.60;1.00
13123;DHT22;6627;50.920;12.050;2023-05-14T13:24:03;19.60;1.00
13123;DHT22;6627;50.920;12.050;2023-05-14T13:26:30;19.60;1.00
13123;DHT22;6627;50.920;12.050;2023-05-14T13:28:58;19.40;1.00
13123;DHT22;6627;50.920;12.050;2023-05-14T13:31:25;19.30;1.00
13123;DHT22;6627;50.920;12.050;2023-05-14T13:33:52;19.30;1.00
13123;DHT22;6627;50.920;12.050;2023-05-14T13:36:19;19.20;1.00
13123;DHT22;6627;50.920;12.050;2023-05-14T13:41:15;19.40;1.00
13123;DHT22;6627;50.920;12.050;2023-05-14T13:43:43;19.50;1.00
13123;DHT22;6627;50.920;12.050;2023-05-14T13:46:10;19.40;1.00
13123;DHT22;6627;50.920;12.050;2023-05-14T13:48:37;19.60;1.00
13123;DHT22;6627;50.920;12.050;2023-05-14T13:51:05;19.60;1.00
13123;DHT22;6627;50.920;12.050;2023-05-14T13:53:32;19.60;1.00
13123;DHT22;6627;50.920;12.050;2023-05-14T13:56:01;19.50;1.00
13123;DHT22;6627;50.920;12.050;2023-05-14T13:58:29;19.40;1.00
13123;DHT22;6627;50.920;12.050;2023-05-14T14:00:56;19.60;1.00
13123;DHT22;6627;50.920;12.050;2023-05-14T14:03:24;19.60;1.00
13123;DHT22;6627;50.920;12.050;2023-05-14T14:05:52;19.50;1.00
13123;DHT22;6627;50.920;12.050;2023-05-14T14:08:19;19.30;1.00
13123;DHT22;6627;50.920;12.050;2023-05-14T14:10:47;19.30;1.00
13123;DHT22;6627;50.920;12.050;2023-05-14T14:13:14;19.20;1.00
13123;DHT22;6627;50.920;12.050;2023-05-14T14:15:43;19.20;1.00
13123;DHT22;6627;50.920;12.050;2023-05-14T14:18:10;19.30;1.00
13123;DHT22;6627;50.920;12.050;2023-05-14T14:20:38;19.20;1.00
13123;DHT22;6627;50.920;12.050;2023-05-14T14:23:05;19.10;1.00
13123;DHT22;6627;50.920;12.050;2023-05-14T14:25:33;19.20;1.00
13123;DHT22;6627;50.920;12.050;2023-05-14T14:28:00;19.20;1.00
13123;DHT22;6627;50.920;12.050;2023-05-14T14:30:27;19.20;1.00
13123;DHT22;6627;50.920;12.050;2023-05-14T14:32:56;19.30;1.00
13123;DHT22;6627;50.920;12.050;2023-05-14T14:35:25;19.40;1.00
13123;DHT22;6627;50.920;12.050;2023-05-14T14:37:53;19.40;1.00
13123;DHT22;6627;50.920;12.050;2023-05-14T14:40:20;19.30;1.00
13123;DHT22;6627;50.920;12.050;2023-05-14T14:42:48;19.30;1.00
13123;DHT22;6627;50.920;12.050;2023-05-14T14:45:16;19.30;1.00
13123;DHT22;6627;50.920;12.050;2023-05-14T14:47:44;19.40;1.00
13123;DHT22;6627;50.920;12.050;2023-05-14T14:50:14;19.40;1.00
13123;DHT22;6627;50.920;12.050;2023-05-14T14:52:41;19.20;1.00
13123;DHT22;6627;50.920;12.050;2023-05-14T14:55:10;19.40;1.00
13123;DHT22;6627;50.920;12.050;2023-05-14T14:57:37;19.40;1.00
13123;DHT22;6627;50.920;12.050;2023-05-14T15:00:05;19.40;1.00
13123;DHT22;6627;50.920;12.050;2023-05-14T15:02:34;19.10;1.00
13123;DHT22;6627;50.920;12.050;2023-05-14T15:05:04;18.90;1.00
13123;DHT22;6627;50.920;12.050;2023-05-14T15:07:33;18.90;1.00
13123;DHT22;6627;50.920;12.050;2023-05-14T15:10:00;19.00;1.00
13123;DHT22;6627;50.920;12.050;2023-05-14T15:12:27;19.00;1.00
13123;DHT22;6627;50.920;12.050;2023-05-14T15:14:55;19.00;1.00
13123;DHT22;6627;50.920;12.050;2023-05-14T15:17:23;18.90;1.00
13123;DHT22;6627;50.920;12.050;2023-05-14T15:19:51;19.00;1.00
13123;DHT22;6627;50.920;12.050;2023-05-14T15:22:18;19.00;1.00
13123;DHT22;6627;50.920;12.050;2023-05-14T15:24:47;18.90;1.00
13123;DHT22;6627;50.920;12.050;2023-05-14T15:27:14;18.80;1.00
13123;DHT22;6627;50.920;12.050;2023-05-14T15:29:41;18.90;1.00
13123;DHT22;6627;50.920;12.050;2023-05-14T15:32:08;18.90;1.00
13123;DHT22;6627;50.920;12.050;2023-05-14T15:34:36;18.90;1.00
13123;DHT22;6627;50.920;12.050;2023-05-14T15:37:03;18.90;1.00
13123;DHT22;6627;50.920;12.050;2023-05-14T15:39:30;18.80;1.00
13123;DHT22;6627;50.920;12.050;2023-05-14T15:41:59;18.90;1.00
13123;DHT22;6627;50.920;12.050;2023-05-14T15:46:53;19.00;1.00
13123;DHT22;6627;50.920;12.050;2023-05-14T15:49:21;19.00;1.00
13123;DHT22;6627;50.920;12.050;2023-05-14T15:51:48;19.10;1.00
13123;DHT22;6627;50.920;12.050;2023-05-14T15:56:43;19.00;1.00
13123;DHT22;6627;50.920;12.050;2023-05-14T15:59:12;18.90;1.00
13123;DHT22;6627;50.920;12.050;2023-05-14T16:01:41;18.80;1.00
13123;DHT22;6627;50.920;12.050;2023-05-14T16:04:09;18.90;1.00
13123;DHT22;6627;50.920;12.050;2023-05-14T16:06:36;18.70;1.00
13123;DHT22;6627;50.920;12.050;2023-05-14T16:09:07;18.60;1.00
13123;DHT22;6627;50.920;12.050;2023-05-14T16:11:34;18.50;1.00
13123;DHT22;6627;50.920;12.050;2023-05-14T16:14:01;18.30;1.00